createdAt,value
2023-02-24T00:02:01.673Z,99436.40
2023-02-24T00:07:05.668Z,99430.40
2023-02-24T00:12:13.707Z,99417.40
2023-02-24T00:17:17.017Z,99399.80
2023-02-24T00:22:20.537Z,99397.20
2023-02-24T00:27:23.611Z,99387.40
2023-02-24T00:32:26.944Z,99384.20
2023-02-24T00:37:30.861Z,99373.40
2023-02-24T00:42:33.971Z,99360.00
2023-02-24T00:47:40.203Z,99358.40
2023-02-24T00:52:43.467Z,99344.00
2023-02-24T00:57:46.550Z,99338.40
2023-02-24T01:02:49.879Z,99329.80
2023-02-24T01:07:53.321Z,99319.80
2023-02-24T01:12:56.397Z,99313.00
2023-02-24T01:17:59.509Z,99299.00
2023-02-24T01:23:03.736Z,99290.20
2023-02-24T01:28:07.040Z,99287.20
2023-02-24T01:33:20.206Z,99277.40
2023-02-24T01:38:23.497Z,99276.00
2023-02-24T01:43:26.752Z,99275.60
2023-02-24T01:48:30.330Z,99266.20
2023-02-24T01:53:33.438Z,99256.40
2023-02-24T01:58:37.460Z,99247.80
2023-02-24T02:03:43.146Z,99236.40
2023-02-24T02:08:47.155Z,99238.40
2023-02-24T02:13:53.919Z,99234.80
2023-02-24T02:19:44.782Z,99232.60
2023-02-24T02:24:57.200Z,99231.60
2023-02-24T02:30:47.745Z,99229.60
2023-02-24T02:36:26.952Z,99221.60
2023-02-24T02:41:44.928Z,99222.20
2023-02-24T02:47:07.070Z,99221.40
2023-02-24T02:52:20.900Z,99215.60
2023-02-24T02:57:30.076Z,99212.40
2023-02-24T03:02:38.394Z,99204.00
2023-02-24T03:07:47.750Z,99192.20
2023-02-24T03:12:58.861Z,99178.00
2023-02-24T03:18:12.409Z,99173.20
2023-02-24T03:23:27.390Z,99166.20
2023-02-24T03:28:39.282Z,99161.80
2023-02-24T03:34:00.851Z,99156.20
2023-02-24T03:39:05.963Z,99153.00
2023-02-24T03:44:12.053Z,99146.00
2023-02-24T03:49:17.028Z,99147.20
2023-02-24T03:54:38.836Z,99143.80
2023-02-24T04:00:17.003Z,99138.80
2023-02-24T04:05:27.662Z,99132.80
2023-02-24T04:10:52.869Z,99128.60
2023-02-24T04:16:17.198Z,99124.20
2023-02-24T04:21:23.406Z,99111.60
2023-02-24T04:26:28.997Z,99111.00
2023-02-24T04:31:34.223Z,99101.80
2023-02-24T04:36:38.649Z,99100.00
2023-02-24T04:41:43.599Z,99091.40
2023-02-24T04:46:49.948Z,99086.20
2023-02-24T04:51:53.532Z,99080.00
2023-02-24T04:56:58.909Z,99077.40
2023-02-24T05:02:02.469Z,99069.40
2023-02-24T05:07:05.588Z,99075.80
2023-02-24T05:12:09.812Z,99070.80
2023-02-24T05:17:16.642Z,99066.80
2023-02-24T05:22:19.712Z,99061.40
2023-02-24T05:27:23.126Z,99056.40
2023-02-24T05:32:26.414Z,99055.20
2023-02-24T05:37:29.676Z,99057.80
2023-02-24T05:42:35.406Z,99056.20
2023-02-24T05:47:40.317Z,99055.40
2023-02-24T05:52:46.022Z,99050.40
2023-02-24T05:57:51.097Z,99045.80
2023-02-24T06:02:54.233Z,99042.20
2023-02-24T06:08:12.049Z,99041.80
2023-02-24T06:13:15.147Z,99038.80
2023-02-24T06:18:18.189Z,99031.60
2023-02-24T06:23:21.384Z,99028.00
2023-02-24T06:28:25.506Z,99027.40
2023-02-24T06:33:28.797Z,99024.00
2023-02-24T06:38:35.022Z,99020.80
2023-02-24T06:43:41.269Z,99014.80
2023-02-24T06:48:44.356Z,99014.40
2023-02-24T06:53:47.394Z,99018.40
2023-02-24T06:58:55.453Z,99010.60
2023-02-24T07:04:08.280Z,99008.60
2023-02-24T07:09:15.869Z,99009.40
2023-02-24T07:14:22.442Z,99007.40
2023-02-24T07:19:30.004Z,99007.20
2023-02-24T07:24:37.272Z,99007.40
2023-02-24T07:29:40.368Z,99008.00
2023-02-24T07:34:44.447Z,99001.00
2023-02-24T07:39:47.692Z,99000.20
2023-02-24T07:44:50.996Z,98997.40
2023-02-24T07:49:55.739Z,98992.00
2023-02-24T07:54:58.836Z,98990.20
2023-02-24T08:00:17.220Z,98978.20
2023-02-24T08:05:21.372Z,98982.00
2023-02-24T08:10:24.705Z,98974.20
2023-02-24T08:15:34.509Z,98963.80
2023-02-24T08:20:52.519Z,98964.60
2023-02-24T08:25:56.184Z,98959.40
2023-02-24T08:30:59.570Z,98954.80
2023-02-24T08:36:04.154Z,98955.40
2023-02-24T08:41:17.961Z,98942.60
2023-02-24T08:46:33.082Z,98938.60
2023-02-24T08:51:44.056Z,98936.00
2023-02-24T08:56:56.475Z,98933.80
2023-02-24T09:02:34.146Z,98929.40
2023-02-24T09:07:42.040Z,98918.20
2023-02-24T09:12:45.497Z,98911.00
2023-02-24T09:17:50.414Z,98907.20
2023-02-24T09:23:09.091Z,98896.20
2023-02-24T09:28:19.064Z,98900.60
2023-02-24T09:33:39.313Z,98896.40
2023-02-24T09:39:03.475Z,98892.20
2023-02-24T09:44:18.664Z,98880.80
2023-02-24T09:49:40.225Z,98874.20
2023-02-24T09:55:15.229Z,98876.20
2023-02-24T10:00:26.225Z,98862.80
2023-02-24T10:06:12.434Z,98858.40
2023-02-24T10:11:17.110Z,98843.60
2023-02-24T10:16:24.480Z,98843.60
2023-02-24T10:22:00.638Z,98843.60
2023-02-24T10:27:17.931Z,98833.40
2023-02-24T10:32:43.919Z,98838.20
2023-02-24T10:37:49.430Z,98828.20
2023-02-24T10:43:11.069Z,98824.80
2023-02-24T10:48:42.760Z,98822.80
2023-02-24T10:54:21.982Z,98809.60
2023-02-24T10:59:25.257Z,98797.60
2023-02-24T11:05:04.565Z,98784.60
2023-02-24T11:10:33.050Z,98784.40
2023-02-24T11:16:06.190Z,98778.80
2023-02-24T11:21:12.807Z,98771.40
2023-02-24T11:26:23.262Z,98758.40
2023-02-24T11:31:59.778Z,98749.40
2023-02-24T11:37:14.737Z,98746.20
2023-02-24T11:42:38.231Z,98744.40
2023-02-24T11:47:53.188Z,98732.40
2023-02-24T11:53:02.725Z,98727.80
2023-02-24T11:58:32.414Z,98735.20
2023-02-24T12:04:25.350Z,98728.40
2023-02-24T12:09:54.982Z,98724.60
2023-02-24T12:15:10.764Z,98716.20
2023-02-24T12:20:50.958Z,98709.60
2023-02-24T12:26:20.381Z,98703.40
2023-02-24T12:31:53.634Z,98707.20
2023-02-24T12:37:20.121Z,98707.60
2023-02-24T12:42:38.599Z,98701.60
2023-02-24T12:48:18.676Z,98694.00
2023-02-24T12:53:52.797Z,98688.80
2023-02-24T12:59:05.685Z,98691.20
2023-02-24T13:04:11.600Z,98682.60
2023-02-24T13:09:30.064Z,98674.40
2023-02-24T13:14:37.489Z,98670.20
2023-02-24T13:19:44.305Z,98666.80
2023-02-24T13:25:09.298Z,98658.40
2023-02-24T13:30:12.490Z,98657.00
2023-02-24T13:35:15.613Z,98655.60
2023-02-24T13:40:23.978Z,98646.60
2023-02-24T13:45:33.673Z,98634.80
2023-02-24T13:50:44.293Z,98635.20
2023-02-24T13:56:10.016Z,98627.20
2023-02-24T14:01:19.273Z,98632.20
2023-02-24T14:06:27.803Z,98639.60
2023-02-24T14:11:37.261Z,98642.80
2023-02-24T14:16:41.596Z,98645.80
2023-02-24T14:21:50.759Z,98633.00
2023-02-24T14:26:58.643Z,98624.20
2023-02-24T14:32:02.620Z,98620.60
2023-02-24T14:37:08.273Z,98616.80
2023-02-24T14:42:15.950Z,98607.40
2023-02-24T14:47:23.564Z,98609.60
2023-02-24T14:52:55.897Z,98602.60
2023-02-24T14:58:18.031Z,98596.00
2023-02-24T15:03:29.814Z,98581.80
2023-02-24T15:08:46.412Z,98576.60
2023-02-24T15:14:16.510Z,98568.20
2023-02-24T15:19:38.019Z,98562.40
2023-02-24T15:24:41.173Z,98555.40
2023-02-24T15:29:58.370Z,98552.40
2023-02-24T15:35:02.711Z,98542.80
2023-02-24T15:40:24.261Z,98539.60
2023-02-24T15:45:38.252Z,98538.40
2023-02-24T15:50:41.442Z,98529.00
2023-02-24T15:55:45.539Z,98520.80
2023-02-24T16:00:52.813Z,98511.40
2023-02-24T16:05:56.056Z,98513.20
2023-02-24T16:11:00.697Z,98509.60
2023-02-24T16:16:06.755Z,98500.60
2023-02-24T16:21:09.944Z,98503.80
2023-02-24T16:26:23.685Z,98495.80
2023-02-24T16:31:28.329Z,98489.40
2023-02-24T16:36:31.793Z,98484.40
2023-02-24T16:41:35.009Z,98485.60
2023-02-24T16:46:41.350Z,98487.60
2023-02-24T16:51:44.701Z,98488.20
2023-02-24T16:56:48.418Z,98482.20
2023-02-24T17:01:51.526Z,98476.00
2023-02-24T17:06:54.838Z,98456.20
2023-02-24T17:11:58.158Z,98453.80
2023-02-24T17:17:01.406Z,98455.20
2023-02-24T17:22:05.612Z,98450.60
2023-02-24T17:27:11.155Z,98450.00
2023-02-24T17:32:14.591Z,98451.80
2023-02-24T17:37:18.607Z,98450.00
2023-02-24T17:42:21.704Z,98440.00
2023-02-24T17:47:25.526Z,98431.00
2023-02-24T17:52:31.383Z,98434.20
2023-02-24T17:57:35.617Z,98428.60
2023-02-24T18:09:17.904Z,98412.20
2023-02-24T18:16:22.557Z,98401.00
2023-02-24T18:21:26.475Z,98400.40
2023-02-24T18:26:34.696Z,98394.80
2023-02-24T18:31:44.783Z,98390.80
2023-02-24T18:37:04.286Z,98381.20
2023-02-24T18:42:18.337Z,98374.80
2023-02-24T18:47:23.211Z,98374.40
2023-02-24T18:52:28.141Z,98365.80
2023-02-24T18:57:31.446Z,98357.40
2023-02-24T19:02:34.859Z,98352.80
2023-02-24T19:07:38.475Z,98346.40
2023-02-24T19:12:41.679Z,98345.40
2023-02-24T19:17:46.429Z,98336.20
2023-02-24T19:22:51.619Z,98331.40
2023-02-24T19:27:55.308Z,98324.00
2023-02-24T19:32:58.646Z,98326.40
2023-02-24T19:38:02.228Z,98317.00
2023-02-24T19:43:05.534Z,98315.20
2023-02-24T19:48:09.872Z,98309.00
2023-02-24T19:53:13.180Z,98300.00
2023-02-24T19:58:16.393Z,98292.40
2023-02-24T20:03:20.725Z,98293.40
2023-02-24T20:08:23.859Z,98293.80
2023-02-24T20:13:27.345Z,98286.80
2023-02-24T20:18:30.455Z,98273.60
2023-02-24T20:23:34.348Z,98270.20
2023-02-24T20:28:37.790Z,98262.40
2023-02-24T20:33:43.839Z,98257.20
2023-02-24T20:38:47.394Z,98255.40
2023-02-24T20:43:51.233Z,98245.00
2023-02-24T20:49:01.338Z,98243.40
2023-02-24T20:54:07.008Z,98235.80
2023-02-24T20:59:17.229Z,98233.00
2023-02-24T21:04:22.035Z,98223.80
2023-02-24T21:09:25.185Z,98218.60
2023-02-24T21:14:28.379Z,98217.80
2023-02-24T21:19:31.694Z,98209.60
2023-02-24T21:24:35.117Z,98202.00
2023-02-24T21:29:38.411Z,98196.80
2023-02-24T21:34:41.628Z,98192.00
2023-02-24T21:39:44.928Z,98176.60
2023-02-24T21:44:51.273Z,98174.80
2023-02-24T21:49:55.337Z,98165.60
2023-02-24T21:54:58.344Z,98159.80
2023-02-24T22:00:02.290Z,98151.80
2023-02-24T22:05:06.173Z,98149.80
2023-02-24T22:10:15.345Z,98140.00
2023-02-24T22:15:18.461Z,98133.40
2023-02-24T22:20:21.756Z,98127.20
2023-02-24T22:25:25.079Z,98121.40
2023-02-24T22:30:28.432Z,98121.00
2023-02-24T22:35:35.545Z,98111.60
2023-02-24T22:40:39.622Z,98107.80
2023-02-24T22:45:42.747Z,98115.60
2023-02-24T22:50:46.449Z,98103.00
2023-02-24T22:55:49.861Z,98100.40
2023-02-24T23:00:54.963Z,98090.80
2023-02-24T23:06:02.434Z,98083.80
2023-02-24T23:11:27.953Z,98076.80
2023-02-24T23:16:35.005Z,98077.60
2023-02-24T23:21:42.506Z,98073.20
2023-02-24T23:26:58.921Z,98064.40
2023-02-24T23:32:02.622Z,98061.40
2023-02-24T23:37:06.105Z,98046.20
2023-02-24T23:42:10.345Z,98044.80
2023-02-24T23:47:14.811Z,98042.20
2023-02-24T23:52:18.624Z,98039.80
2023-02-24T23:57:22.633Z,98037.80
